sensor_id;sensor_type;location;lat;lon;timestamp;pressure;altitude;pressure_sealevel;temperature;humidity
75629;BME280;64213;46.452;16.994;2023-12-20T00:02:45;99942.00;;;-0.42;100.00
75629;BME280;64213;46.452;16.994;2023-12-20T00:05:49;99939.50;;;-0.49;100.00
75629;BME280;64213;46.452;16.994;2023-12-20T00:08:52;99939.56;;;-0.52;100.00
75629;BME280;64213;46.452;16.994;2023-12-20T00:11:54;99932.78;;;-0.57;100.00
75629;BME280;64213;46.452;16.994;2023-12-20T00:14:57;99926.81;;;-0.62;100.00
75629;BME280;64213;46.452;16.994;2023-12-20T00:18:00;99918.13;;;-0.61;100.00
75629;BME280;64213;46.452;16.994;2023-12-20T00:21:03;99919.91;;;-0.63;100.00
75629;BME280;64213;46.452;16.994;2023-12-20T00:24:05;99904.53;;;-0.73;100.00
75629;BME280;64213;46.452;16.994;2023-12-20T00:27:08;99913.19;;;-0.74;100.00
75629;BME280;64213;46.452;16.994;2023-12-20T00:30:10;99912.50;;;-0.82;100.00
75629;BME280;64213;46.452;16.994;2023-12-20T00:33:13;99887.78;;;-1.01;100.00
75629;BME280;64213;46.452;16.994;2023-12-20T00:36:16;99900.53;;;-0.90;100.00
75629;BME280;64213;46.452;16.994;2023-12-20T00:39:19;99894.50;;;-0.91;100.00
75629;BME280;64213;46.452;16.994;2023-12-20T00:42:21;99885.56;;;-0.78;100.00
75629;BME280;64213;46.452;16.994;2023-12-20T00:45:23;99875.97;;;-0.74;100.00
75629;BME280;64213;46.452;16.994;2023-12-20T00:48:26;99873.47;;;-0.79;100.00
75629;BME280;64213;46.452;16.994;2023-12-20T00:51:29;99859.78;;;-0.87;100.00
75629;BME280;64213;46.452;16.994;2023-12-20T00:54:31;99862.56;;;-0.95;100.00
75629;BME280;64213;46.452;16.994;2023-12-20T00:57:34;99855.72;;;-0.99;100.00
75629;BME280;64213;46.452;16.994;2023-12-20T01:00:37;99868.78;;;-1.03;100.00
75629;BME280;64213;46.452;16.994;2023-12-20T01:03:42;99856.69;;;-1.04;100.00
75629;BME280;64213;46.452;16.994;2023-12-20T01:06:44;99854.09;;;-1.04;100.00
75629;BME280;64213;46.452;16.994;2023-12-20T01:09:47;99846.31;;;-1.06;100.00
75629;BME280;64213;46.452;16.994;2023-12-20T01:12:50;99842.09;;;-1.10;100.00
75629;BME280;64213;46.452;16.994;2023-12-20T01:15:52;99834.28;;;-1.08;100.00
75629;BME280;64213;46.452;16.994;2023-12-20T01:18:54;99830.00;;;-1.11;100.00
75629;BME280;64213;46.452;16.994;2023-12-20T01:21:57;99837.00;;;-1.14;100.00
75629;BME280;64213;46.452;16.994;2023-12-20T01:24:59;99825.78;;;-1.17;100.00
75629;BME280;64213;46.452;16.994;2023-12-20T01:28:04;99824.94;;;-1.19;100.00
75629;BME280;64213;46.452;16.994;2023-12-20T01:31:08;99825.03;;;-1.23;100.00
75629;BME280;64213;46.452;16.994;2023-12-20T01:34:11;99825.91;;;-1.23;100.00
75629;BME280;64213;46.452;16.994;2023-12-20T01:37:14;99808.75;;;-1.31;100.00
75629;BME280;64213;46.452;16.994;2023-12-20T01:40:16;99809.75;;;-1.37;100.00
75629;BME280;64213;46.452;16.994;2023-12-20T01:43:19;99808.09;;;-1.41;100.00
75629;BME280;64213;46.452;16.994;2023-12-20T01:46:21;99804.81;;;-1.51;100.00
75629;BME280;64213;46.452;16.994;2023-12-20T01:49:24;99797.25;;;-1.63;100.00
75629;BME280;64213;46.452;16.994;2023-12-20T01:52:27;99801.75;;;-1.73;100.00
75629;BME280;64213;46.452;16.994;2023-12-20T01:55:31;99789.03;;;-1.85;100.00
75629;BME280;64213;46.452;16.994;2023-12-20T01:58:39;99787.34;;;-1.89;100.00
75629;BME280;64213;46.452;16.994;2023-12-20T02:01:45;99782.38;;;-2.00;100.00
75629;BME280;64213;46.452;16.994;2023-12-20T02:04:48;99786.00;;;-2.12;100.00
75629;BME280;64213;46.452;16.994;2023-12-20T02:07:53;99776.59;;;-2.16;100.00
75629;BME280;64213;46.452;16.994;2023-12-20T02:10:56;99775.78;;;-2.19;100.00
75629;BME280;64213;46.452;16.994;2023-12-20T02:14:00;99773.25;;;-2.22;100.00
75629;BME280;64213;46.452;16.994;2023-12-20T02:17:02;99763.72;;;-2.22;100.00
75629;BME280;64213;46.452;16.994;2023-12-20T02:20:05;99752.47;;;-2.21;100.00
75629;BME280;64213;46.452;16.994;2023-12-20T02:23:08;99742.84;;;-2.13;100.00
75629;BME280;64213;46.452;16.994;2023-12-20T02:26:10;99741.94;;;-2.10;100.00
75629;BME280;64213;46.452;16.994;2023-12-20T02:29:13;99733.13;;;-2.01;100.00
75629;BME280;64213;46.452;16.994;2023-12-20T02:32:17;99720.22;;;-2.04;100.00
75629;BME280;64213;46.452;16.994;2023-12-20T02:35:20;99724.56;;;-2.05;100.00
75629;BME280;64213;46.452;16.994;2023-12-20T02:38:22;99727.19;;;-2.06;100.00
75629;BME280;64213;46.452;16.994;2023-12-20T02:41:25;99725.47;;;-2.07;100.00
75629;BME280;64213;46.452;16.994;2023-12-20T02:44:27;99722.03;;;-2.08;100.00
75629;BME280;64213;46.452;16.994;2023-12-20T02:47:30;99721.19;;;-2.08;100.00
75629;BME280;64213;46.452;16.994;2023-12-20T02:50:33;99710.00;;;-2.11;100.00
75629;BME280;64213;46.452;16.994;2023-12-20T02:53:35;99700.50;;;-2.10;100.00
75629;BME280;64213;46.452;16.994;2023-12-20T02:56:38;99695.31;;;-2.10;100.00
75629;BME280;64213;46.452;16.994;2023-12-20T02:59:41;99693.63;;;-2.13;100.00
75629;BME280;64213;46.452;16.994;2023-12-20T03:02:43;99693.59;;;-2.11;100.00
75629;BME280;64213;46.452;16.994;2023-12-20T03:05:46;99692.78;;;-2.15;100.00
75629;BME280;64213;46.452;16.994;2023-12-20T03:08:48;99689.44;;;-2.20;100.00
75629;BME280;64213;46.452;16.994;2023-12-20T03:11:51;99685.16;;;-2.22;100.00
75629;BME280;64213;46.452;16.994;2023-12-20T03:14:53;99688.66;;;-2.23;100.00
75629;BME280;64213;46.452;16.994;2023-12-20T03:17:56;99678.34;;;-2.26;100.00
75629;BME280;64213;46.452;16.994;2023-12-20T03:21:01;99675.69;;;-2.25;100.00
75629;BME280;64213;46.452;16.994;2023-12-20T03:24:03;99666.19;;;-2.23;100.00
75629;BME280;64213;46.452;16.994;2023-12-20T03:27:06;99667.00;;;-2.21;100.00
75629;BME280;64213;46.452;16.994;2023-12-20T03:30:08;99663.59;;;-2.23;100.00
75629;BME280;64213;46.452;16.994;2023-12-20T03:33:11;99671.38;;;-2.24;100.00
75629;BME280;64213;46.452;16.994;2023-12-20T03:36:14;99659.19;;;-2.19;100.00
75629;BME280;64213;46.452;16.994;2023-12-20T03:39:16;99671.16;;;-2.12;100.00
75629;BME280;64213;46.452;16.994;2023-12-20T03:43:59;99670.03;;;-1.97;100.00
75629;BME280;64213;46.452;16.994;2023-12-20T03:47:02;99663.09;;;-1.97;100.00
75629;BME280;64213;46.452;16.994;2023-12-20T03:50:05;99657.13;;;-2.00;100.00
75629;BME280;64213;46.452;16.994;2023-12-20T03:53:08;99664.16;;;-2.07;100.00
75629;BME280;64213;46.452;16.994;2023-12-20T04:00:07;99668.59;;;-2.14;100.00
75629;BME280;64213;46.452;16.994;2023-12-20T04:03:12;99661.47;;;-2.02;100.00
75629;BME280;64213;46.452;16.994;2023-12-20T04:06:19;99671.41;;;-2.26;100.00
75629;BME280;64213;46.452;16.994;2023-12-20T04:09:21;99674.22;;;-2.38;100.00
75629;BME280;64213;46.452;16.994;2023-12-20T04:12:24;99680.34;;;-2.44;100.00
75629;BME280;64213;46.452;16.994;2023-12-20T04:15:27;99682.97;;;-2.45;100.00
75629;BME280;64213;46.452;16.994;2023-12-20T04:18:29;99689.75;;;-2.38;100.00
75629;BME280;64213;46.452;16.994;2023-12-20T04:21:32;99687.06;;;-2.32;100.00
75629;BME280;64213;46.452;16.994;2023-12-20T04:24:34;99680.03;;;-2.27;100.00
75629;BME280;64213;46.452;16.994;2023-12-20T04:27:37;99680.78;;;-2.19;100.00
75629;BME280;64213;46.452;16.994;2023-12-20T04:30:39;99677.19;;;-2.12;100.00
75629;BME280;64213;46.452;16.994;2023-12-20T04:33:41;99672.78;;;-2.06;100.00
75629;BME280;64213;46.452;16.994;2023-12-20T04:36:44;99669.97;;;-1.94;100.00
75629;BME280;64213;46.452;16.994;2023-12-20T04:39:47;99678.44;;;-1.86;100.00
75629;BME280;64213;46.452;16.994;2023-12-20T04:42:50;99676.62;;;-1.81;100.00
75629;BME280;64213;46.452;16.994;2023-12-20T04:45:52;99678.19;;;-1.74;100.00
75629;BME280;64213;46.452;16.994;2023-12-20T04:48:55;99671.16;;;-1.67;100.00
75629;BME280;64213;46.452;16.994;2023-12-20T04:51:58;99665.78;;;-1.58;100.00
75629;BME280;64213;46.452;16.994;2023-12-20T04:55:01;99668.25;;;-1.53;100.00
75629;BME280;64213;46.452;16.994;2023-12-20T04:58:03;99666.50;;;-1.51;100.00
75629;BME280;64213;46.452;16.994;2023-12-20T05:01:06;99657.81;;;-1.50;100.00
75629;BME280;64213;46.452;16.994;2023-12-20T05:04:09;99662.22;;;-1.52;100.00
75629;BME280;64213;46.452;16.994;2023-12-20T05:07:11;99664.94;;;-1.60;100.00
75629;BME280;64213;46.452;16.994;2023-12-20T05:10:14;99655.47;;;-1.61;100.00
75629;BME280;64213;46.452;16.994;2023-12-20T05:13:17;99665.00;;;-1.61;100.00
75629;BME280;64213;46.452;16.994;2023-12-20T05:16:19;99659.69;;;-1.55;100.00
75629;BME280;64213;46.452;16.994;2023-12-20T05:19:23;99656.19;;;-1.54;100.00
75629;BME280;64213;46.452;16.994;2023-12-20T05:22:25;99651.78;;;-1.49;100.00
75629;BME280;64213;46.452;16.994;2023-12-20T05:25:29;99648.22;;;-1.45;100.00
75629;BME280;64213;46.452;16.994;2023-12-20T05:28:32;99650.87;;;-1.48;100.00
75629;BME280;64213;46.452;16.994;2023-12-20T05:31:35;99653.34;;;-1.42;100.00
75629;BME280;64213;46.452;16.994;2023-12-20T05:34:37;99657.63;;;-1.39;100.00
75629;BME280;64213;46.452;16.994;2023-12-20T05:37:40;99662.09;;;-1.46;100.00
75629;BME280;64213;46.452;16.994;2023-12-20T05:40:42;99665.59;;;-1.50;100.00
75629;BME280;64213;46.452;16.994;2023-12-20T05:43:45;99655.22;;;-1.49;100.00
75629;BME280;64213;46.452;16.994;2023-12-20T05:46:47;99651.13;;;-1.59;100.00
75629;BME280;64213;46.452;16.994;2023-12-20T05:49:50;99655.28;;;-1.53;100.00
75629;BME280;64213;46.452;16.994;2023-12-20T05:52:52;99649.19;;;-1.51;100.00
75629;BME280;64213;46.452;16.994;2023-12-20T05:55:56;99639.66;;;-1.50;100.00
75629;BME280;64213;46.452;16.994;2023-12-20T05:58:58;99647.38;;;-1.46;100.00
75629;BME280;64213;46.452;16.994;2023-12-20T06:02:01;99654.38;;;-1.51;100.00
75629;BME280;64213;46.452;16.994;2023-12-20T06:05:04;99650.37;;;-1.66;100.00
75629;BME280;64213;46.452;16.994;2023-12-20T06:08:07;99649.50;;;-1.66;100.00
75629;BME280;64213;46.452;16.994;2023-12-20T06:11:10;99654.56;;;-1.60;100.00
75629;BME280;64213;46.452;16.994;2023-12-20T06:14:13;99645.94;;;-1.60;100.00
75629;BME280;64213;46.452;16.994;2023-12-20T06:17:15;99652.94;;;-1.64;100.00
75629;BME280;64213;46.452;16.994;2023-12-20T06:20:18;99654.75;;;-1.69;100.00
75629;BME280;64213;46.452;16.994;2023-12-20T06:23:20;99651.50;;;-1.79;100.00
75629;BME280;64213;46.452;16.994;2023-12-20T06:26:23;99651.53;;;-1.80;100.00
75629;BME280;64213;46.452;16.994;2023-12-20T06:29:26;99651.66;;;-1.85;100.00
75629;BME280;64213;46.452;16.994;2023-12-20T06:32:28;99648.13;;;-1.82;100.00
75629;BME280;64213;46.452;16.994;2023-12-20T06:35:31;99654.16;;;-1.82;100.00
75629;BME280;64213;46.452;16.994;2023-12-20T06:38:37;99649.22;;;-1.94;100.00
75629;BME280;64213;46.452;16.994;2023-12-20T06:41:41;99663.78;;;-1.87;100.00
75629;BME280;64213;46.452;16.994;2023-12-20T06:44:44;99662.12;;;-1.91;100.00
75629;BME280;64213;46.452;16.994;2023-12-20T06:47:47;99668.13;;;-1.89;100.00
75629;BME280;64213;46.452;16.994;2023-12-20T06:50:50;99668.91;;;-1.84;100.00
75629;BME280;64213;46.452;16.994;2023-12-20T06:53:52;99662.81;;;-1.81;100.00
75629;BME280;64213;46.452;16.994;2023-12-20T06:56:55;99677.34;;;-1.74;100.00
75629;BME280;64213;46.452;16.994;2023-12-20T06:59:57;99667.03;;;-1.77;100.00
75629;BME280;64213;46.452;16.994;2023-12-20T07:03:00;99662.66;;;-1.74;100.00
75629;BME280;64213;46.452;16.994;2023-12-20T07:06:03;99659.16;;;-1.73;100.00
75629;BME280;64213;46.452;16.994;2023-12-20T07:09:06;99664.25;;;-1.68;100.00
75629;BME280;64213;46.452;16.994;2023-12-20T07:12:08;99663.59;;;-1.78;100.00
75629;BME280;64213;46.452;16.994;2023-12-20T07:15:11;99661.72;;;-1.71;100.00
75629;BME280;64213;46.452;16.994;2023-12-20T07:18:14;99666.84;;;-1.68;100.00
75629;BME280;64213;46.452;16.994;2023-12-20T07:21:16;99676.38;;;-1.69;100.00
75629;BME280;64213;46.452;16.994;2023-12-20T07:24:19;99685.81;;;-1.66;100.00
75629;BME280;64213;46.452;16.994;2023-12-20T07:27:21;99681.69;;;-1.75;100.00
75629;BME280;64213;46.452;16.994;2023-12-20T07:30:24;99698.66;;;-1.60;100.00
75629;BME280;64213;46.452;16.994;2023-12-20T07:33:26;99701.28;;;-1.61;100.00
75629;BME280;64213;46.452;16.994;2023-12-20T07:36:29;99696.13;;;-1.63;100.00
75629;BME280;64213;46.452;16.994;2023-12-20T07:39:31;99695.91;;;-1.52;100.00
75629;BME280;64213;46.452;16.994;2023-12-20T07:42:34;99697.38;;;-1.39;100.00
75629;BME280;64213;46.452;16.994;2023-12-20T07:45:36;99685.38;;;-1.45;100.00
75629;BME280;64213;46.452;16.994;2023-12-20T07:48:39;99699.25;;;-1.46;100.00
75629;BME280;64213;46.452;16.994;2023-12-20T07:51:44;99694.84;;;-1.42;100.00
75629;BME280;64213;46.452;16.994;2023-12-20T07:54:47;99696.34;;;-1.30;100.00
75629;BME280;64213;46.452;16.994;2023-12-20T07:57:49;99699.97;;;-1.39;100.00
75629;BME280;64213;46.452;16.994;2023-12-20T08:00:52;99712.16;;;-1.43;100.00
75629;BME280;64213;46.452;16.994;2023-12-20T08:03:55;99714.88;;;-1.49;100.00
75629;BME280;64213;46.452;16.994;2023-12-20T08:06:58;99710.53;;;-1.48;100.00
75629;BME280;64213;46.452;16.994;2023-12-20T08:10:00;99707.22;;;-1.55;100.00
75629;BME280;64213;46.452;16.994;2023-12-20T08:13:03;99704.31;;;-1.39;100.00
75629;BME280;64213;46.452;16.994;2023-12-20T08:16:06;99716.44;;;-1.42;100.00
75629;BME280;64213;46.452;16.994;2023-12-20T08:19:08;99708.59;;;-1.37;100.00
75629;BME280;64213;46.452;16.994;2023-12-20T08:22:11;99708.41;;;-1.29;100.00
75629;BME280;64213;46.452;16.994;2023-12-20T08:25:15;99711.72;;;-1.21;100.00
75629;BME280;64213;46.452;16.994;2023-12-20T08:28:18;99714.44;;;-1.27;100.00
75629;BME280;64213;46.452;16.994;2023-12-20T08:31:20;99711.66;;;-1.20;100.00
75629;BME280;64213;46.452;16.994;2023-12-20T08:34:23;99714.25;;;-1.18;100.00
75629;BME280;64213;46.452;16.994;2023-12-20T08:37:27;99711.53;;;-1.13;100.00
75629;BME280;64213;46.452;16.994;2023-12-20T08:40:29;99713.28;;;-1.14;100.00
75629;BME280;64213;46.452;16.994;2023-12-20T08:43:32;99713.03;;;-1.03;100.00
75629;BME280;64213;46.452;16.994;2023-12-20T08:46:36;99713.78;;;-0.98;100.00
75629;BME280;64213;46.452;16.994;2023-12-20T08:49:38;99711.19;;;-0.98;100.00
75629;BME280;64213;46.452;16.994;2023-12-20T08:52:41;99724.06;;;-0.94;100.00
75629;BME280;64213;46.452;16.994;2023-12-20T08:55:44;99740.72;;;-1.04;100.00
75629;BME280;64213;46.452;16.994;2023-12-20T08:58:47;99761.25;;;-0.91;100.00
75629;BME280;64213;46.452;16.994;2023-12-20T09:01:49;99766.75;;;-1.05;100.00
75629;BME280;64213;46.452;16.994;2023-12-20T09:04:56;99768.25;;;-0.95;100.00
75629;BME280;64213;46.452;16.994;2023-12-20T09:07:59;99763.00;;;-0.92;100.00
75629;BME280;64213;46.452;16.994;2023-12-20T09:11:01;99778.63;;;-0.95;100.00
75629;BME280;64213;46.452;16.994;2023-12-20T09:14:04;99769.94;;;-0.94;100.00
75629;BME280;64213;46.452;16.994;2023-12-20T09:17:06;99756.66;;;-0.80;100.00
75629;BME280;64213;46.452;16.994;2023-12-20T09:20:10;99772.22;;;-0.80;100.00
75629;BME280;64213;46.452;16.994;2023-12-20T09:23:16;99774.03;;;-0.84;100.00
75629;BME280;64213;46.452;16.994;2023-12-20T09:26:18;99764.69;;;-0.91;100.00
75629;BME280;64213;46.452;16.994;2023-12-20T09:29:21;99776.78;;;-0.90;100.00
75629;BME280;64213;46.452;16.994;2023-12-20T09:32:23;99773.44;;;-0.97;100.00
75629;BME280;64213;46.452;16.994;2023-12-20T09:35:26;99763.53;;;-0.78;100.00
75629;BME280;64213;46.452;16.994;2023-12-20T09:38:28;99750.66;;;-0.82;100.00
75629;BME280;64213;46.452;16.994;2023-12-20T09:41:35;99740.72;;;-0.65;100.00
75629;BME280;64213;46.452;16.994;2023-12-20T09:44:39;99729.56;;;-0.68;100.00
75629;BME280;64213;46.452;16.994;2023-12-20T09:47:52;99723.94;;;-0.50;100.00
75629;BME280;64213;46.452;16.994;2023-12-20T09:50:55;99703.69;;;-0.37;100.00
75629;BME280;64213;46.452;16.994;2023-12-20T09:53:58;99700.66;;;-0.20;100.00
75629;BME280;64213;46.452;16.994;2023-12-20T09:57:04;99723.03;;;-0.49;100.00
75629;BME280;64213;46.452;16.994;2023-12-20T10:00:07;99720.69;;;-0.24;100.00
75629;BME280;64213;46.452;16.994;2023-12-20T10:03:09;99709.13;;;-0.12;100.00
75629;BME280;64213;46.452;16.994;2023-12-20T10:06:13;99701.50;;;-0.18;100.00
75629;BME280;64213;46.452;16.994;2023-12-20T10:09:16;99710.44;;;-0.29;100.00
75629;BME280;64213;46.452;16.994;2023-12-20T10:12:18;99707.47;;;-0.16;100.00
75629;BME280;64213;46.452;16.994;2023-12-20T10:15:20;99711.72;;;-0.12;100.00
75629;BME280;64213;46.452;16.994;2023-12-20T10:18:23;99714.09;;;-0.37;100.00
75629;BME280;64213;46.452;16.994;2023-12-20T10:21:38;99727.25;;;-0.09;100.00
75629;BME280;64213;46.452;16.994;2023-12-20T10:24:40;99721.03;;;-0.04;100.00
75629;BME280;64213;46.452;16.994;2023-12-20T10:27:43;99726.13;;;0.01;100.00
75629;BME280;64213;46.452;16.994;2023-12-20T10:30:45;99749.94;;;-0.16;100.00
75629;BME280;64213;46.452;16.994;2023-12-20T10:33:48;99757.41;;;-0.04;100.00
75629;BME280;64213;46.452;16.994;2023-12-20T10:36:51;99746.06;;;0.01;100.00
75629;BME280;64213;46.452;16.994;2023-12-20T10:39:54;99744.50;;;-0.07;100.00
75629;BME280;64213;46.452;16.994;2023-12-20T10:43:00;99722.53;;;0.05;100.00
75629;BME280;64213;46.452;16.994;2023-12-20T10:46:05;99722.28;;;0.14;100.00
75629;BME280;64213;46.452;16.994;2023-12-20T10:49:08;99694.63;;;0.12;100.00
75629;BME280;64213;46.452;16.994;2023-12-20T10:52:12;99691.78;;;0.21;100.00
75629;BME280;64213;46.452;16.994;2023-12-20T10:55:15;99693.12;;;0.34;100.00
75629;BME280;64213;46.452;16.994;2023-12-20T10:58:19;99693.91;;;0.38;100.00
75629;BME280;64213;46.452;16.994;2023-12-20T11:01:23;99702.00;;;0.58;100.00
75629;BME280;64213;46.452;16.994;2023-12-20T11:05:19;99697.81;;;0.53;100.00
75629;BME280;64213;46.452;16.994;2023-12-20T11:07:59;99694.22;;;0.57;100.00
75629;BME280;64213;46.452;16.994;2023-12-20T11:11:13;99683.47;;;0.69;100.00
75629;BME280;64213;46.452;16.994;2023-12-20T11:14:35;99681.94;;;0.62;100.00
75629;BME280;64213;46.452;16.994;2023-12-20T11:17:44;99666.34;;;0.60;100.00
75629;BME280;64213;46.452;16.994;2023-12-20T11:20:54;99680.84;;;0.71;100.00
75629;BME280;64213;46.452;16.994;2023-12-20T11:23:56;99658.94;;;0.76;100.00
75629;BME280;64213;46.452;16.994;2023-12-20T11:27:00;99659.03;;;0.45;100.00
75629;BME280;64213;46.452;16.994;2023-12-20T11:30:04;99648.44;;;0.51;100.00
75629;BME280;64213;46.452;16.994;2023-12-20T11:33:11;99649.97;;;0.58;100.00
75629;BME280;64213;46.452;16.994;2023-12-20T11:36:17;99629.94;;;0.88;100.00
75629;BME280;64213;46.452;16.994;2023-12-20T11:39:23;99637.63;;;0.93;100.00
75629;BME280;64213;46.452;16.994;2023-12-20T11:42:27;99647.59;;;1.07;100.00
75629;BME280;64213;46.452;16.994;2023-12-20T11:45:30;99656.53;;;0.98;100.00
75629;BME280;64213;46.452;16.994;2023-12-20T11:48:35;99639.06;;;1.02;100.00
75629;BME280;64213;46.452;16.994;2023-12-20T11:51:41;99626.00;;;1.03;100.00
75629;BME280;64213;46.452;16.994;2023-12-20T11:54:44;99633.81;;;1.03;100.00
75629;BME280;64213;46.452;16.994;2023-12-20T11:57:46;99617.53;;;0.68;100.00
75629;BME280;64213;46.452;16.994;2023-12-20T12:00:50;99610.88;;;0.88;100.00
75629;BME280;64213;46.452;16.994;2023-12-20T12:04:05;99617.19;;;0.79;100.00
75629;BME280;64213;46.452;16.994;2023-12-20T12:07:09;99623.94;;;0.86;100.00
75629;BME280;64213;46.452;16.994;2023-12-20T12:10:11;99639.25;;;0.96;100.00
75629;BME280;64213;46.452;16.994;2023-12-20T12:13:14;99643.22;;;1.09;100.00
75629;BME280;64213;46.452;16.994;2023-12-20T12:16:17;99654.22;;;0.89;100.00
75629;BME280;64213;46.452;16.994;2023-12-20T12:19:22;99651.50;;;0.93;100.00
75629;BME280;64213;46.452;16.994;2023-12-20T12:22:25;99645.38;;;0.95;100.00
75629;BME280;64213;46.452;16.994;2023-12-20T12:25:30;99665.78;;;0.80;100.00
75629;BME280;64213;46.452;16.994;2023-12-20T12:28:34;99640.88;;;0.72;100.00
75629;BME280;64213;46.452;16.994;2023-12-20T12:31:37;99661.62;;;0.75;100.00
75629;BME280;64213;46.452;16.994;2023-12-20T12:34:39;99655.78;;;0.66;100.00
75629;BME280;64213;46.452;16.994;2023-12-20T12:37:42;99642.09;;;0.60;100.00
75629;BME280;64213;46.452;16.994;2023-12-20T12:40:44;99631.78;;;0.85;100.00
75629;BME280;64213;46.452;16.994;2023-12-20T12:43:47;99639.50;;;0.88;100.00
75629;BME280;64213;46.452;16.994;2023-12-20T12:46:49;99651.31;;;1.00;100.00
75629;BME280;64213;46.452;16.994;2023-12-20T12:49:53;99638.03;;;1.07;100.00
75629;BME280;64213;46.452;16.994;2023-12-20T12:52:56;99636.25;;;1.09;100.00
75629;BME280;64213;46.452;16.994;2023-12-20T12:55:58;99626.56;;;1.13;100.00
75629;BME280;64213;46.452;16.994;2023-12-20T12:59:01;99628.53;;;1.06;100.00
75629;BME280;64213;46.452;16.994;2023-12-20T13:02:03;99642.66;;;0.99;100.00
75629;BME280;64213;46.452;16.994;2023-12-20T13:05:06;99638.03;;;1.07;100.00
75629;BME280;64213;46.452;16.994;2023-12-20T13:08:10;99623.06;;;1.14;100.00
75629;BME280;64213;46.452;16.994;2023-12-20T13:11:14;99624.06;;;1.10;100.00
75629;BME280;64213;46.452;16.994;2023-12-20T13:14:16;99620.72;;;1.06;100.00
75629;BME280;64213;46.452;16.994;2023-12-20T13:17:19;99625.81;;;1.09;100.00
75629;BME280;64213;46.452;16.994;2023-12-20T13:20:21;99622.41;;;1.07;100.00
75629;BME280;64213;46.452;16.994;2023-12-20T13:23:24;99615.44;;;1.08;100.00
75629;BME280;64213;46.452;16.994;2023-12-20T13:26:27;99612.94;;;1.05;100.00
75629;BME280;64213;46.452;16.994;2023-12-20T13:29:29;99623.97;;;1.13;100.00
75629;BME280;64213;46.452;16.994;2023-12-20T13:32:31;99623.06;;;1.14;100.00
75629;BME280;64213;46.452;16.994;2023-12-20T13:35:34;99622.09;;;1.16;100.00
75629;BME280;64213;46.452;16.994;2023-12-20T13:38:37;99623.69;;;1.21;100.00
75629;BME280;64213;46.452;16.994;2023-12-20T13:41:40;99635.94;;;1.19;100.00
75629;BME280;64213;46.452;16.994;2023-12-20T13:44:42;99630.84;;;1.15;100.00
75629;BME280;64213;46.452;16.994;2023-12-20T13:47:44;99643.03;;;1.13;100.00
75629;BME280;64213;46.452;16.994;2023-12-20T13:50:48;99639.44;;;1.17;100.00
75629;BME280;64213;46.452;16.994;2023-12-20T13:53:50;99632.53;;;1.16;100.00
75629;BME280;64213;46.452;16.994;2023-12-20T13:56:52;99632.72;;;1.10;100.00
75629;BME280;64213;46.452;16.994;2023-12-20T14:00:13;99632.72;;;1.10;100.00
75629;BME280;64213;46.452;16.994;2023-12-20T14:03:16;99638.22;;;1.01;100.00
75629;BME280;64213;46.452;16.994;2023-12-20T14:06:19;99642.78;;;0.95;100.00
75629;BME280;64213;46.452;16.994;2023-12-20T14:09:22;99655.69;;;0.98;100.00
75629;BME280;64213;46.452;16.994;2023-12-20T14:12:25;99651.34;;;0.98;100.00
75629;BME280;64213;46.452;16.994;2023-12-20T14:15:27;99649.91;;;0.88;100.00
75629;BME280;64213;46.452;16.994;2023-12-20T14:18:29;99651.72;;;0.86;100.00
75629;BME280;64213;46.452;16.994;2023-12-20T14:21:33;99651.88;;;0.81;100.00
75629;BME280;64213;46.452;16.994;2023-12-20T14:24:35;99648.44;;;0.79;100.00
75629;BME280;64213;46.452;16.994;2023-12-20T14:27:39;99659.69;;;0.80;100.00
75629;BME280;64213;46.452;16.994;2023-12-20T14:30:42;99655.50;;;0.76;100.00
75629;BME280;64213;46.452;16.994;2023-12-20T14:33:45;99664.22;;;0.75;100.00
75629;BME280;64213;46.452;16.994;2023-12-20T14:36:48;99673.72;;;0.76;100.00
75629;BME280;64213;46.452;16.994;2023-12-20T14:39:50;99671.38;;;0.66;100.00
75629;BME280;64213;46.452;16.994;2023-12-20T14:42:53;99678.41;;;0.64;100.00
75629;BME280;64213;46.452;16.994;2023-12-20T14:45:55;99675.91;;;0.61;100.00
75629;BME280;64213;46.452;16.994;2023-12-20T14:48:58;99679.28;;;0.63;100.00
75629;BME280;64213;46.452;16.994;2023-12-20T14:52:00;99676.59;;;0.66;100.00
75629;BME280;64213;46.452;16.994;2023-12-20T14:55:03;99671.38;;;0.66;100.00
75629;BME280;64213;46.452;16.994;2023-12-20T14:58:06;99677.59;;;0.62;100.00
75629;BME280;64213;46.452;16.994;2023-12-20T15:01:10;99687.16;;;0.62;100.00
75629;BME280;64213;46.452;16.994;2023-12-20T15:04:13;99685.41;;;0.62;100.00
75629;BME280;64213;46.452;16.994;2023-12-20T15:07:16;99691.72;;;0.54;100.00
75629;BME280;64213;46.452;16.994;2023-12-20T15:10:19;99686.59;;;0.51;100.00
75629;BME280;64213;46.452;16.994;2023-12-20T15:13:21;99686.41;;;0.58;100.00
75629;BME280;64213;46.452;16.994;2023-12-20T15:16:24;99682.97;;;0.56;100.00
75629;BME280;64213;46.452;16.994;2023-12-20T15:19:27;99695.22;;;0.53;100.00
75629;BME280;64213;46.452;16.994;2023-12-20T15:22:30;99698.00;;;0.46;100.00
75629;BME280;64213;46.452;16.994;2023-12-20T15:25:35;99689.44;;;0.43;100.00
75629;BME280;64213;46.452;16.994;2023-12-20T15:28:38;99682.38;;;0.46;100.00
75629;BME280;64213;46.452;16.994;2023-12-20T15:31:45;99684.12;;;0.46;100.00
75629;BME280;64213;46.452;16.994;2023-12-20T15:34:48;99679.84;;;0.45;100.00
75629;BME280;64213;46.452;16.994;2023-12-20T15:37:51;99675.59;;;0.41;100.00
75629;BME280;64213;46.452;16.994;2023-12-20T15:40:54;99679.25;;;0.35;100.00
75629;BME280;64213;46.452;16.994;2023-12-20T15:43:56;99692.34;;;0.32;100.00
75629;BME280;64213;46.452;16.994;2023-12-20T15:46:59;99681.34;;;0.22;100.00
75629;BME280;64213;46.452;16.994;2023-12-20T15:50:02;99689.16;;;0.22;100.00
75629;BME280;64213;46.452;16.994;2023-12-20T15:53:04;99701.16;;;0.27;100.00
75629;BME280;64213;46.452;16.994;2023-12-20T15:56:07;99690.94;;;0.20;100.00